Time;durP1;ratioP1;P1;durP2;ratioP2;P2;SDS_P1;SDS_P2;PMS_P1;PMS_P2;Temp;Humidity;BMP_temperature;BMP_pressure;BME280_temperature;BME280_humidity;BME280_pressure;Samples;Min_cycle;Max_cycle;Signal;HPM_P1;HPM_P2
2022/09/05 00:02:05;;;;;;;4.40;2.90;;;14.80;99.90;;;;;;5071236;28;20466;-72
2022/09/05 00:05:15;;;;;;;4.60;3.03;;;14.80;99.90;;;;;;5070466;28;20426;-72
2022/09/05 00:08:18;;;;;;;3.33;3.03;;;14.70;99.90;;;;;;5071681;28;20415;-72
2022/09/05 00:11:13;;;;;;;3.43;3.13;;;14.70;99.90;;;;;;5071436;28;20479;-70
2022/09/05 00:13:43;;;;;;;8.83;3.57;;;14.80;99.90;;;;;;5063960;28;20424;-71
2022/09/05 00:16:54;;;;;;;3.40;3.10;;;14.70;99.90;;;;;;5051368;28;20494;-72
2022/09/05 00:19:38;;;;;;;5.00;3.20;;;14.70;99.90;;;;;;5051171;28;20930;-71
2022/09/05 00:22:30;;;;;;;5.53;3.10;;;14.70;99.90;;;;;;5057592;28;20435;-71
2022/09/05 00:24:56;;;;;;;3.23;3.03;;;14.60;99.90;;;;;;5071370;28;20422;-71
2022/09/05 00:27:31;;;;;;;8.53;3.33;;;14.60;99.90;;;;;;5071352;28;20414;-72
2022/09/05 00:30:16;;;;;;;5.87;2.97;;;14.60;99.90;;;;;;5070989;28;20185;-72
2022/09/05 00:33:05;;;;;;;3.87;3.50;;;14.60;99.90;;;;;;5070889;28;20529;-71
2022/09/05 00:35:57;;;;;;;7.00;3.70;;;14.60;99.90;;;;;;5071412;28;20454;-71
2022/09/05 00:38:25;;;;;;;5.47;2.67;;;14.60;99.90;;;;;;5071244;28;20828;-72
2022/09/05 00:40:55;;;;;;;3.77;3.00;;;14.60;99.90;;;;;;5072703;28;20414;-72
2022/09/05 00:43:35;;;;;;;3.07;2.77;;;14.60;99.90;;;;;;5072018;28;20484;-72
2022/09/05 00:46:09;;;;;;;2.63;2.53;;;14.50;99.90;;;;;;5070981;28;20502;-71
2022/09/05 00:48:46;;;;;;;3.63;3.10;;;14.50;99.90;;;;;;5071058;28;20957;-71
2022/09/05 00:51:48;;;;;;;6.43;3.17;;;14.50;99.90;;;;;;5070629;28;20426;-71
2022/09/05 00:54:29;;;;;;;8.07;3.67;;;14.50;99.90;;;;;;5070967;28;20414;-71
2022/09/05 00:57:21;;;;;;;3.30;3.10;;;14.50;99.90;;;;;;5071486;28;20752;-71
2022/09/05 02:33:24;;;;;;;3.73;3.43;;;13.90;99.90;;;;;;5119892;22;20499;-70
2022/09/05 02:36:09;;;;;;;3.63;3.30;;;13.80;99.90;;;;;;5045157;28;20785;-70
2022/09/05 02:38:45;;;;;;;5.17;3.70;;;13.80;99.90;;;;;;5053173;28;20498;-70
2022/09/05 02:41:31;;;;;;;4.60;3.30;;;13.80;99.90;;;;;;5053199;28;20443;-70
2022/09/05 02:44:08;;;;;;;3.80;3.50;;;13.80;99.90;;;;;;5052725;28;20979;-70
2022/09/05 02:46:57;;;;;;;3.13;2.83;;;13.70;99.90;;;;;;5047559;28;20485;-70
2022/09/05 02:49:44;;;;;;;7.37;3.60;;;13.70;99.90;;;;;;5037886;28;20420;-70
2022/09/05 02:52:14;;;;;;;7.63;3.47;;;13.70;99.90;;;;;;5032653;28;20472;-70
2022/09/05 02:54:45;;;;;;;5.43;3.10;;;13.70;99.90;;;;;;5032764;28;20432;-70
2022/09/05 02:57:52;;;;;;;5.23;3.00;;;13.70;99.90;;;;;;5032913;28;20793;-70
2022/09/05 03:00:20;;;;;;;4.30;3.90;;;13.70;99.90;;;;;;5032515;28;20795;-70
2022/09/05 03:03:10;;;;;;;4.03;3.63;;;13.70;99.90;;;;;;5032522;28;20441;-70
2022/09/05 03:05:50;;;;;;;7.50;4.17;;;13.70;99.90;;;;;;5032647;28;20420;-70
2022/09/05 03:08:57;;;;;;;3.57;3.27;;;13.60;99.90;;;;;;5032736;28;20416;-70
2022/09/05 03:12:04;;;;;;;4.40;3.80;;;13.60;99.90;;;;;;5026753;28;20448;-70
2022/09/05 03:15:00;;;;;;;4.00;3.70;;;13.50;99.90;;;;;;5019187;28;20428;-70
2022/09/05 03:17:48;;;;;;;3.43;3.20;;;13.50;99.90;;;;;;5039284;28;20417;-70
2022/09/05 03:20:37;;;;;;;4.20;3.60;;;13.50;99.90;;;;;;5032147;28;20456;-69
2022/09/05 03:23:22;;;;;;;4.53;4.13;;;13.50;99.90;;;;;;5032204;28;20424;-70
2022/09/05 03:26:11;;;;;;;6.43;3.90;;;13.50;99.90;;;;;;5032419;28;20429;-70
2022/09/05 03:29:10;;;;;;;6.20;3.83;;;13.40;99.90;;;;;;5041663;28;20914;-70
2022/09/05 03:32:08;;;;;;;4.20;3.90;;;13.40;99.90;;;;;;5051895;28;20459;-70
2022/09/05 03:35:16;;;;;;;4.13;3.53;;;13.50;99.90;;;;;;5052094;28;20852;-70
2022/09/05 03:38:06;;;;;;;4.80;3.40;;;13.40;99.90;;;;;;5052113;28;20420;-69
2022/09/05 03:40:50;;;;;;;4.43;4.00;;;13.40;99.90;;;;;;5052079;28;20509;-70
2022/09/05 03:43:49;;;;;;;14.30;5.03;;;13.40;99.90;;;;;;5051406;28;20408;-70
2022/09/05 03:46:45;;;;;;;4.87;4.33;;;13.40;99.90;;;;;;5048068;28;20412;-70
2022/09/05 03:49:34;;;;;;;5.13;3.40;;;13.40;99.90;;;;;;5031825;28;20433;-71
2022/09/05 03:52:11;;;;;;;6.00;3.87;;;13.40;99.90;;;;;;5031587;28;20851;-70
2022/09/05 03:55:07;;;;;;;6.17;3.53;;;13.40;99.90;;;;;;5031973;28;20408;-70
2022/09/05 03:58:04;;;;;;;3.60;3.13;;;13.40;99.90;;;;;;5031826;28;20405;-70
2022/09/05 04:00:35;;;;;;;3.93;3.63;;;13.40;99.90;;;;;;5031861;28;20463;-70
2022/09/05 04:03:04;;;;;;;4.80;3.67;;;13.30;99.90;;;;;;5031378;28;20481;-69
2022/09/05 04:05:34;;;;;;;5.27;4.33;;;13.30;99.90;;;;;;5031505;28;20432;-69
2022/09/05 04:08:28;;;;;;;5.00;3.77;;;13.30;99.90;;;;;;5031750;28;20474;-69
2022/09/05 04:11:05;;;;;;;7.43;4.43;;;13.30;99.90;;;;;;5031674;28;20498;-69
2022/09/05 04:13:45;;;;;;;5.60;4.13;;;13.30;99.90;;;;;;5039785;28;20424;-70
2022/09/05 04:16:23;;;;;;;4.57;4.07;;;13.30;99.90;;;;;;5048472;28;20507;-70
2022/09/05 04:19:12;;;;;;;7.00;4.03;;;13.30;99.90;;;;;;5031388;28;20471;-70
2022/09/05 04:22:16;;;;;;;4.63;4.10;;;13.30;99.90;;;;;;5031397;28;20864;-70
2022/09/05 04:24:55;;;;;;;5.40;3.80;;;13.30;99.90;;;;;;5000809;28;20424;-69
2022/09/05 04:27:45;;;;;;;4.83;3.90;;;13.30;99.90;;;;;;5031558;28;20418;-70
2022/09/05 04:30:40;;;;;;;7.03;4.10;;;13.30;99.90;;;;;;5039977;28;20416;-70
2022/09/05 04:33:27;;;;;;;4.73;4.07;;;13.30;99.90;;;;;;5050835;28;20466;-70
2022/09/05 04:36:20;;;;;;;3.90;3.60;;;13.30;99.90;;;;;;5051030;28;20442;-70
2022/09/05 04:39:06;;;;;;;9.87;4.57;;;13.30;99.90;;;;;;5051296;28;20502;-70
2022/09/05 04:41:37;;;;;;;4.80;4.27;;;13.30;99.90;;;;;;5050859;28;21206;-71
2022/09/05 04:44:13;;;;;;;9.37;4.93;;;13.30;99.90;;;;;;5051219;28;20511;-70
2022/09/05 04:46:47;;;;;;;6.10;4.20;;;13.30;99.90;;;;;;5043994;28;20412;-71
2022/09/05 04:49:20;;;;;;;4.87;4.43;;;13.30;99.90;;;;;;5031218;28;20424;-70
2022/09/05 04:52:38;;;;;;;5.30;3.93;;;13.30;99.90;;;;;;5030882;28;20880;-70
2022/09/05 04:55:16;;;;;;;4.17;3.87;;;13.30;99.90;;;;;;5013640;28;20428;-70
2022/09/05 04:58:05;;;;;;;3.93;3.53;;;13.30;99.90;;;;;;5031210;28;20919;-70
2022/09/05 05:00:51;;;;;;;5.00;4.00;;;13.40;99.90;;;;;;5031061;28;20413;-70
2022/09/05 05:03:21;;;;;;;3.40;3.10;;;13.40;99.90;;;;;;5030933;28;20408;-69
2022/09/05 05:05:47;;;;;;;4.93;4.30;;;13.40;99.90;;;;;;5031037;28;20936;-70
2022/09/05 05:08:29;;;;;;;4.97;4.47;;;13.50;99.90;;;;;;5032335;28;20420;-70
2022/09/05 05:10:59;;;;;;;8.97;4.17;;;13.60;99.90;;;;;;5032332;28;20205;-70
2022/09/05 05:13:33;;;;;;;5.30;3.63;;;13.60;99.90;;;;;;5031130;28;20416;-70
2022/09/05 05:16:04;;;;;;;6.03;3.53;;;13.70;99.90;;;;;;5044610;28;20404;-70
2022/09/05 05:18:39;;;;;;;8.00;4.27;;;13.80;99.90;;;;;;5034616;28;20456;-70
2022/09/05 05:21:11;;;;;;;6.13;4.63;;;13.80;99.90;;;;;;5050028;28;20455;-67
2022/09/05 05:23:49;;;;;;;4.50;4.10;;;13.90;99.90;;;;;;5046084;28;20423;-70
2022/09/05 05:26:35;;;;;;;5.20;4.80;;;14.00;99.90;;;;;;5051888;28;20423;-69
2022/09/05 05:29:08;;;;;;;8.57;3.87;;;14.10;99.90;;;;;;5047315;28;20463;-70
2022/09/05 05:31:38;;;;;;;8.27;4.20;;;14.30;99.90;;;;;;5054255;28;20530;-70
2022/09/05 05:34:14;;;;;;;4.63;4.23;;;14.40;99.90;;;;;;5052783;28;20429;-69
2022/09/05 05:36:50;;;;;;;6.03;4.13;;;14.50;99.90;;;;;;5053155;28;20416;-70
2022/09/05 05:39:27;;;;;;;4.87;3.77;;;14.60;99.90;;;;;;5053832;28;20494;-70
2022/09/05 05:41:54;;;;;;;6.93;3.50;;;14.60;99.90;;;;;;5054157;28;20816;-70
2022/09/05 05:44:36;;;;;;;4.13;3.70;;;14.70;99.90;;;;;;5054012;28;20427;-70
2022/09/05 05:47:14;;;;;;;3.80;3.50;;;14.80;99.90;;;;;;5042226;28;20447;-69
2022/09/05 05:50:02;;;;;;;4.43;4.03;;;15.00;99.90;;;;;;5034228;28;20979;-69
2022/09/05 05:52:57;;;;;;;4.57;4.03;;;15.10;99.90;;;;;;5034018;28;20867;-69
2022/09/05 05:55:53;;;;;;;4.90;4.43;;;15.20;99.90;;;;;;5034089;28;20421;-68
2022/09/05 05:58:50;;;;;;;8.93;5.00;;;15.30;99.90;;;;;;5042822;28;20467;-69
2022/09/05 06:01:42;;;;;;;5.70;4.67;;;15.40;99.90;;;;;;5053686;28;20968;-69
2022/09/05 06:04:22;;;;;;;5.17;4.73;;;15.60;99.90;;;;;;5053612;28;20448;-70
2022/09/05 06:07:01;;;;;;;4.93;4.53;;;15.80;99.90;;;;;;5053895;28;20419;-69
2022/09/05 06:09:45;;;;;;;7.70;3.70;;;16.00;99.90;;;;;;5053617;28;20511;-70
2022/09/05 06:12:48;;;;;;;4.53;4.23;;;16.30;99.90;;;;;;5053447;28;20972;-71
2022/09/05 06:15:45;;;;;;;4.70;4.30;;;16.70;99.90;;;;;;5053532;28;20431;-71
2022/09/05 06:18:29;;;;;;;5.70;3.80;;;17.10;99.90;;;;;;5033638;28;20413;-72
2022/09/05 06:21:34;;;;;;;4.33;3.60;;;17.40;99.90;;;;;;5033579;28;20440;-71
2022/09/05 06:24:30;;;;;;;6.07;3.43;;;17.60;99.90;;;;;;5033628;28;20412;-71
2022/09/05 06:27:24;;;;;;;5.70;3.63;;;18.20;99.90;;;;;;5061000;28;20431;-71
2022/09/05 06:30:02;;;;;;;3.77;3.57;;;18.70;99.90;;;;;;5053301;28;20932;-72
2022/09/05 06:33:12;;;;;;;3.63;3.33;;;19.20;99.90;;;;;;5053008;28;21039;-71
2022/09/05 06:35:52;;;;;;;4.87;3.63;;;19.80;99.90;;;;;;5049289;28;20478;-71
2022/09/05 06:38:49;;;;;;;3.90;3.60;;;20.40;99.90;;;;;;5053124;28;21053;-73
2022/09/05 06:41:19;;;;;;;3.47;3.17;;;21.00;99.90;;;;;;5052733;28;20470;-72
2022/09/05 06:44:13;;;;;;;4.83;4.07;;;21.60;99.90;;;;;;5053215;28;20833;-72
2022/09/05 06:46:42;;;;;;;3.43;3.10;;;21.90;99.90;;;;;;5053001;28;20423;-71
2022/09/05 06:49:24;;;;;;;6.90;3.37;;;22.30;99.90;;;;;;5052732;28;20430;-71
2022/09/05 06:52:09;;;;;;;3.40;3.20;;;22.60;99.90;;;;;;5052538;28;20712;-71
2022/09/05 06:54:53;;;;;;;3.60;3.40;;;22.50;99.90;;;;;;5051991;28;20463;-72
2022/09/05 06:57:29;;;;;;;5.10;3.67;;;22.40;99.90;;;;;;5052555;28;20477;-71
2022/09/05 07:00:21;;;;;;;5.40;3.80;;;22.50;99.90;;;;;;5052730;28;20465;-71
2022/09/05 07:03:19;;;;;;;3.50;3.20;;;22.60;99.90;;;;;;5052408;28;20448;-71
2022/09/05 07:05:53;;;;;;;5.43;3.10;;;22.80;99.90;;;;;;5052808;28;20424;-71
2022/09/05 07:08:50;;;;;;;4.97;3.50;;;23.00;99.90;;;;;;5052425;28;20417;-71
2022/09/05 07:11:45;;;;;;;5.80;2.93;;;23.50;99.90;;;;;;5052543;28;20439;-72
2022/09/05 07:14:20;;;;;;;4.13;2.43;;;24.00;99.90;;;;;;5021464;28;20554;-71
2022/09/05 07:16:50;;;;;;;5.80;2.80;;;24.20;99.90;;;;;;5052632;28;20419;-71
2022/09/05 07:19:31;;;;;;;3.87;3.10;;;24.40;99.90;;;;;;5034524;28;21094;-72
2022/09/05 07:22:15;;;;;;;3.83;3.23;;;24.80;99.90;;;;;;5033359;28;20862;-72
2022/09/05 07:24:45;;;;;;;3.17;2.60;;;25.40;99.90;;;;;;5033153;28;20425;-73
2022/09/05 07:27:23;;;;;;;5.93;3.40;;;25.80;99.90;;;;;;5032569;28;20925;-72
2022/09/05 07:29:53;;;;;;;3.80;2.57;;;26.20;99.90;;;;;;5032492;28;20428;-72
2022/09/05 07:32:18;;;;;;;7.00;3.40;;;26.20;99.90;;;;;;5031871;28;20460;-72
2022/09/05 07:34:47;;;;;;;4.33;3.73;;;26.60;99.90;;;;;;5032645;28;20797;-72
2022/09/05 07:37:20;;;;;;;11.50;3.53;;;26.60;99.90;;;;;;5032081;28;20659;-72
2022/09/05 07:40:14;;;;;;;8.40;3.10;;;26.60;99.90;;;;;;5031337;28;20471;-73
2022/09/05 07:42:45;;;;;;;6.57;3.70;;;26.80;99.90;;;;;;5032081;28;20749;-72
2022/09/05 07:45:16;;;;;;;7.93;3.13;;;27.30;99.90;;;;;;5031887;28;20845;-72
2022/09/05 07:47:57;;;;;;;3.07;2.87;;;27.60;99.90;;;;;;5032191;28;20456;-72
2022/09/05 07:50:24;;;;;;;2.70;2.47;;;27.40;99.90;;;;;;5031869;28;20420;-72
2022/09/05 07:52:50;;;;;;;6.57;3.23;;;27.60;99.90;;;;;;5031973;28;20484;-72
2022/09/05 07:55:26;;;;;;;4.60;2.67;;;27.70;99.90;;;;;;5031959;28;20486;-72
2022/09/05 07:57:56;;;;;;;3.60;3.20;;;27.90;99.90;;;;;;5032112;28;20493;-72
2022/09/05 08:00:25;;;;;;;6.23;3.30;;;27.80;99.90;;;;;;5030045;28;20530;-72
2022/09/05 08:02:51;;;;;;;6.50;2.90;;;27.90;99.90;;;;;;5031802;28;20536;-72
2022/09/05 08:05:19;;;;;;;3.93;2.60;;;28.20;99.90;;;;;;5031652;28;20436;-72
2022/09/05 08:07:50;;;;;;;6.70;3.30;;;28.30;99.90;;;;;;5052013;28;20189;-72
2022/09/05 08:10:24;;;;;;;2.63;2.43;;;28.70;99.90;;;;;;5051389;28;20428;-71
2022/09/05 08:12:57;;;;;;;7.00;2.30;;;29.30;99.90;;;;;;5044122;28;20991;-72
2022/09/05 08:15:28;;;;;;;4.50;2.63;;;29.30;99.90;;;;;;5031130;28;20420;-72
2022/09/05 08:18:17;;;;;;;2.87;2.03;;;29.70;99.90;;;;;;5045252;28;20512;-72
2022/09/05 08:21:06;;;;;;;2.17;1.70;;;29.70;99.90;;;;;;5031667;28;20420;-72
2022/09/05 08:24:08;;;;;;;3.97;2.13;;;30.10;99.90;;;;;;5031532;28;20424;-72
2022/09/05 08:26:39;;;;;;;2.57;2.37;;;29.90;99.90;;;;;;5031523;28;20416;-72
2022/09/05 08:29:33;;;;;;;6.60;2.23;;;30.30;99.90;;;;;;5031396;28;20417;-72
2022/09/05 08:32:13;;;;;;;2.90;2.70;;;30.40;99.90;;;;;;5031045;28;20934;-73
2022/09/05 08:34:53;;;;;;;4.77;2.80;;;30.30;99.90;;;;;;5031768;28;20522;-72
2022/09/05 08:37:25;;;;;;;3.10;2.57;;;30.10;99.90;;;;;;5031254;28;20432;-72
2022/09/05 08:39:54;;;;;;;6.37;2.80;;;30.40;99.90;;;;;;5031532;28;20460;-72
2022/09/05 08:42:48;;;;;;;3.30;2.17;;;30.30;99.90;;;;;;5030787;28;20452;-72
2022/09/05 08:45:21;;;;;;;5.60;2.03;;;30.60;99.90;;;;;;5031170;28;20812;-72
2022/09/05 08:48:09;;;;;;;5.60;2.53;;;30.80;99.90;;;;;;5031322;28;20479;-72
2022/09/05 08:50:49;;;;;;;5.53;2.70;;;31.10;99.90;;;;;;5031529;28;20758;-72
2022/09/05 08:53:48;;;;;;;2.87;2.67;;;31.20;99.90;;;;;;5034919;28;20477;-73
2022/09/05 08:56:22;;;;;;;5.90;2.37;;;31.00;99.90;;;;;;5035144;28;20926;-72
2022/09/05 08:59:05;;;;;;;2.37;2.27;;;31.10;99.90;;;;;;5035081;28;20460;-72
2022/09/05 09:01:42;;;;;;;2.80;2.37;;;31.10;99.90;;;;;;5035301;28;20814;-72
2022/09/05 09:04:22;;;;;;;3.33;2.37;;;30.90;99.90;;;;;;5034828;28;20427;-73
2022/09/05 09:07:27;;;;;;;5.07;3.10;;;31.00;99.90;;;;;;5035145;28;20510;-72
2022/09/05 09:10:07;;;;;;;3.43;1.90;;;31.30;99.90;;;;;;5035196;28;20420;-70
2022/09/05 09:12:50;;;;;;;2.33;2.07;;;31.80;99.90;;;;;;5034928;28;20509;-70
2022/09/05 09:15:40;;;;;;;3.97;2.70;;;32.30;99.90;;;;;;5034765;28;20519;-70
2022/09/05 09:18:15;;;;;;;2.80;2.30;;;32.30;99.90;;;;;;5034810;28;20863;-70
2022/09/05 09:20:55;;;;;;;2.60;2.37;;;32.60;99.90;;;;;;5034773;28;20464;-70
2022/09/05 09:23:49;;;;;;;2.63;2.03;;;33.30;99.90;;;;;;5034628;28;20424;-70
2022/09/05 09:26:28;;;;;;;2.23;2.00;;;33.30;99.90;;;;;;5034772;28;20424;-71
2022/09/05 09:29:06;;;;;;;6.60;2.50;;;33.40;99.90;;;;;;5034837;28;20431;-70
2022/09/05 09:31:55;;;;;;;4.70;2.30;;;33.50;99.90;;;;;;5034376;28;20459;-70
2022/09/05 09:34:24;;;;;;;6.33;2.23;;;33.60;99.90;;;;;;5034932;28;20793;-70
2022/09/05 09:37:18;;;;;;;3.07;2.40;;;33.90;99.90;;;;;;5034549;28;20444;-70
2022/09/05 09:40:08;;;;;;;6.57;2.60;;;33.80;99.90;;;;;;5044382;28;20463;-71
2022/09/05 09:42:56;;;;;;;4.90;2.53;;;34.10;99.90;;;;;;5053806;28;20792;-71
2022/09/05 09:45:54;;;;;;;3.07;2.00;;;34.20;99.90;;;;;;5054137;28;20435;-71
2022/09/05 09:49:02;;;;;;;3.03;2.00;;;34.60;99.90;;;;;;5054460;28;20432;-71
2022/09/05 09:51:39;;;;;;;5.33;2.87;;;34.90;99.90;;;;;;5054163;28;20530;-71
2022/09/05 09:54:21;;;;;;;7.83;2.50;;;35.00;99.90;;;;;;5053805;28;20438;-71
2022/09/05 09:57:10;;;;;;;3.03;2.03;;;35.00;98.90;;;;;;5054029;28;20412;-71
2022/09/05 10:00:09;;;;;;;2.63;2.00;;;34.90;99.40;;;;;;5054304;28;20816;-71
2022/09/05 10:03:10;;;;;;;3.67;2.07;;;35.10;98.40;;;;;;5052669;28;20448;-71
2022/09/05 10:05:39;;;;;;;12.03;2.00;;;35.40;98.70;;;;;;5048289;28;20424;-71
2022/09/05 10:08:28;;;;;;;2.70;2.10;;;34.70;98.00;;;;;;5053724;28;20739;-71
2022/09/05 10:11:17;;;;;;;3.73;1.93;;;35.00;98.00;;;;;;5054008;28;21040;-71
2022/09/05 10:14:01;;;;;;;3.10;2.47;;;35.00;97.10;;;;;;5053443;28;20459;-71
2022/09/05 10:17:06;;;;;;;5.83;2.03;;;34.70;97.10;;;;;;5042906;28;20404;-71
2022/09/05 10:19:53;;;;;;;2.10;1.90;;;34.50;96.70;;;;;;5033589;28;20460;-71
2022/09/05 10:22:30;;;;;;;3.20;1.93;;;34.70;96.10;;;;;;5033289;28;20447;-72
2022/09/05 10:25:20;;;;;;;2.43;1.90;;;34.90;95.50;;;;;;5033676;28;20515;-71
2022/09/05 10:28:27;;;;;;;5.87;1.50;;;34.70;96.80;;;;;;5042296;28;20415;-72
2022/09/05 10:31:12;;;;;;;2.63;2.10;;;34.90;95.70;;;;;;5026042;28;20462;-71
2022/09/05 10:33:43;;;;;;;2.37;2.20;;;35.00;97.10;;;;;;5052990;28;20451;-71
2022/09/05 10:36:14;;;;;;;2.10;2.00;;;35.20;95.80;;;;;;5053199;28;20452;-72
2022/09/05 10:38:44;;;;;;;6.10;2.10;;;35.50;95.60;;;;;;5053134;28;20963;-72
2022/09/05 10:41:14;;;;;;;2.40;2.20;;;35.40;94.40;;;;;;5052948;28;20868;-71
2022/09/05 10:44:01;;;;;;;4.07;2.10;;;35.20;94.30;;;;;;5053121;28;20419;-71
2022/09/05 10:46:43;;;;;;;2.20;2.10;;;35.10;94.20;;;;;;5053049;28;20423;-71
2022/09/05 10:49:12;;;;;;;2.13;2.03;;;35.40;94.40;;;;;;5053074;28;20916;-71
2022/09/05 10:51:59;;;;;;;6.10;1.70;;;35.10;92.60;;;;;;5052821;28;20440;-71
2022/09/05 10:54:47;;;;;;;2.30;2.10;;;34.40;92.60;;;;;;5052990;28;20431;-71
2022/09/05 10:57:20;;;;;;;3.00;1.50;;;34.40;93.70;;;;;;5052804;28;20490;-71
2022/09/05 11:00:03;;;;;;;2.43;1.80;;;34.70;92.90;;;;;;5052950;28;20473;-72
2022/09/05 11:02:31;;;;;;;2.53;1.60;;;34.80;92.40;;;;;;5052728;28;20432;-72
2022/09/05 11:05:18;;;;;;;3.60;2.20;;;35.00;90.80;;;;;;5052928;28;20411;-71
2022/09/05 11:08:20;;;;;;;8.73;1.63;;;34.90;91.40;;;;;;5052958;28;20415;-71
2022/09/05 11:11:12;;;;;;;5.70;1.73;;;34.70;91.00;;;;;;5052449;28;20419;-71
2022/09/05 11:13:46;;;;;;;2.77;2.00;;;34.20;92.20;;;;;;5052422;28;20423;-71
2022/09/05 11:16:25;;;;;;;2.80;2.13;;;34.10;92.30;;;;;;5054847;28;20939;-71
2022/09/05 11:19:14;;;;;;;2.30;2.10;;;33.70;92.50;;;;;;5037358;28;20479;-71
2022/09/05 11:22:00;;;;;;;1.97;1.87;;;33.90;93.20;;;;;;5035340;28;20445;-72
2022/09/05 11:24:59;;;;;;;5.30;2.20;;;33.60;91.50;;;;;;5035471;28;20413;-72
2022/09/05 11:27:36;;;;;;;4.87;1.80;;;33.30;91.70;;;;;;5012953;28;20799;-72
2022/09/05 11:30:06;;;;;;;1.80;1.70;;;33.30;91.00;;;;;;5034796;28;20462;-71
2022/09/05 11:32:50;;;;;;;2.33;2.20;;;33.30;91.00;;;;;;5031918;28;20565;-71
2022/09/05 11:35:32;;;;;;;1.87;1.77;;;33.50;92.00;;;;;;5032312;28;20524;-71
2022/09/05 11:37:58;;;;;;;2.83;1.73;;;33.70;91.90;;;;;;5032513;28;20421;-71
2022/09/05 11:41:12;;;;;;;1.93;1.67;;;33.90;91.70;;;;;;5032135;28;20823;-71
2022/09/05 11:44:11;;;;;;;2.70;1.70;;;33.70;91.30;;;;;;5031807;28;20208;-70
2022/09/05 11:47:00;;;;;;;1.70;1.60;;;33.80;90.70;;;;;;5032510;28;20447;-71
2022/09/05 11:49:50;;;;;;;2.20;2.00;;;33.60;90.30;;;;;;5031966;28;20429;-71
2022/09/05 11:52:53;;;;;;;2.23;2.03;;;33.50;91.20;;;;;;5031690;28;20909;-72
2022/09/05 11:55:19;;;;;;;2.10;1.60;;;33.50;92.00;;;;;;5031748;28;20421;-71
2022/09/05 11:58:03;;;;;;;2.27;2.07;;;33.20;91.70;;;;;;5031796;28;20528;-71
2022/09/05 12:00:48;;;;;;;1.73;1.63;;;32.80;91.60;;;;;;5031567;28;20210;-71
2022/09/05 12:03:31;;;;;;;2.43;2.17;;;32.10;90.50;;;;;;5031489;28;20486;-71
2022/09/05 12:06:29;;;;;;;2.80;1.70;;;31.80;91.30;;;;;;5040446;28;20411;-72
2022/09/05 12:09:17;;;;;;;3.30;2.13;;;31.50;91.90;;;;;;5051514;28;20477;-71
2022/09/05 12:12:01;;;;;;;3.07;1.90;;;31.40;92.50;;;;;;5051429;28;20443;-69
2022/09/05 12:14:38;;;;;;;3.63;1.50;;;31.00;91.70;;;;;;5051292;28;20415;-70
2022/09/05 12:17:29;;;;;;;2.00;1.80;;;30.40;93.30;;;;;;5047911;28;20425;-71
2022/09/05 12:20:05;;;;;;;2.03;1.70;;;29.70;95.10;;;;;;5031684;28;20552;-71
2022/09/05 12:22:36;;;;;;;2.37;2.20;;;29.40;95.50;;;;;;5031296;28;20463;-71
2022/09/05 12:25:20;;;;;;;2.10;1.90;;;29.10;96.30;;;;;;5031184;28;20417;-71
2022/09/05 12:27:51;;;;;;;2.03;1.93;;;29.00;95.00;;;;;;5031589;28;20408;-70
2022/09/05 12:30:27;;;;;;;2.60;2.40;;;28.90;95.90;;;;;;5031145;28;20456;-71
2022/09/05 12:33:06;;;;;;;2.70;2.50;;;28.80;97.30;;;;;;5031307;28;20510;-71
2022/09/05 12:35:37;;;;;;;1.50;1.50;;;28.80;96.60;;;;;;5031225;28;20420;-71
2022/09/05 12:38:17;;;;;;;2.40;1.67;;;28.70;96.80;;;;;;5031261;28;20444;-70
2022/09/05 12:41:09;;;;;;;3.97;2.50;;;28.60;97.60;;;;;;5049469;28;20419;-70
2022/09/05 12:43:37;;;;;;;2.27;1.73;;;28.70;96.50;;;;;;5048904;28;20424;-70
2022/09/05 12:46:16;;;;;;;1.90;1.80;;;28.90;96.60;;;;;;5042522;28;20495;-69
2022/09/05 12:49:06;;;;;;;2.17;1.97;;;29.20;96.40;;;;;;5036846;28;20502;-69
2022/09/05 12:51:36;;;;;;;1.70;1.60;;;29.30;96.00;;;;;;5036474;28;20487;-70
2022/09/05 12:54:10;;;;;;;2.10;1.83;;;29.10;96.60;;;;;;5034151;28;20460;-70
2022/09/05 12:56:49;;;;;;;2.40;2.00;;;29.00;96.90;;;;;;5046310;28;20456;-70
2022/09/05 12:59:21;;;;;;;2.20;2.00;;;28.80;96.40;;;;;;5045606;28;20567;-69
2022/09/05 13:02:02;;;;;;;2.13;2.03;;;28.60;97.60;;;;;;5049409;28;20460;-70
2022/09/05 13:04:35;;;;;;;2.93;2.67;;;28.50;97.30;;;;;;5048275;28;20815;-70
2022/09/05 13:07:26;;;;;;;2.17;1.97;;;28.50;96.50;;;;;;5049512;28;20586;-71
2022/09/05 13:10:09;;;;;;;4.50;2.10;;;28.40;97.70;;;;;;5049913;28;20874;-71
2022/09/05 13:12:47;;;;;;;2.20;2.03;;;28.30;96.40;;;;;;5049763;28;20459;-71
2022/09/05 13:15:22;;;;;;;2.67;1.83;;;28.20;97.70;;;;;;5034434;28;20440;-70
2022/09/05 13:18:09;;;;;;;5.10;4.60;;;28.10;96.60;;;;;;5043375;28;20443;-71
2022/09/05 13:20:44;;;;;;;4.00;2.67;;;28.00;96.90;;;;;;5030067;28;20518;-69
2022/09/05 13:23:26;;;;;;;2.53;1.97;;;28.10;98.20;;;;;;5035555;28;20829;-70
2022/09/05 13:26:07;;;;;;;1.90;1.80;;;28.00;96.10;;;;;;5044219;28;20458;-70
2022/09/05 13:28:52;;;;;;;2.70;2.40;;;27.90;97.30;;;;;;5050296;28;20407;-70
2022/09/05 13:31:39;;;;;;;4.30;1.90;;;27.80;97.10;;;;;;5050338;28;20455;-69
2022/09/05 13:34:11;;;;;;;2.03;1.93;;;27.70;97.40;;;;;;5050261;28;20411;-70
2022/09/05 13:36:50;;;;;;;5.67;4.17;;;27.80;97.90;;;;;;5050772;28;20417;-71
2022/09/05 13:39:19;;;;;;;2.57;2.37;;;28.00;98.10;;;;;;5051203;28;20547;-70
2022/09/05 13:41:52;;;;;;;1.87;1.77;;;28.00;97.60;;;;;;5034322;28;20456;-72
2022/09/05 13:44:20;;;;;;;2.70;1.60;;;28.10;97.50;;;;;;5034041;28;20424;-70
2022/09/05 13:47:04;;;;;;;4.30;2.03;;;28.20;97.80;;;;;;5043459;28;20424;-71
2022/09/05 13:49:43;;;;;;;3.93;1.80;;;28.30;96.50;;;;;;5054130;28;20455;-71
2022/09/05 13:52:25;;;;;;;2.23;2.00;;;28.40;96.40;;;;;;5041876;28;20483;-70
2022/09/05 13:55:08;;;;;;;2.00;1.87;;;28.50;95.30;;;;;;5034162;28;20494;-69
2022/09/05 13:57:43;;;;;;;1.80;1.70;;;28.40;96.10;;;;;;5034198;28;20788;-70
2022/09/05 14:00:09;;;;;;;2.43;1.40;;;28.50;96.20;;;;;;5033844;28;20467;-70
2022/09/05 14:02:41;;;;;;;1.80;1.60;;;28.50;97.00;;;;;;5033365;28;20953;-70
2022/09/05 14:05:14;;;;;;;1.83;1.73;;;28.50;98.00;;;;;;5045741;28;20427;-70
2022/09/05 14:08:16;;;;;;;2.17;2.00;;;28.60;97.50;;;;;;5052775;28;20415;-71
2022/09/05 14:11:15;;;;;;;2.07;1.87;;;28.70;96.10;;;;;;5049482;28;20436;-70
2022/09/05 14:14:09;;;;;;;1.90;1.80;;;28.70;95.40;;;;;;5046641;28;20414;-71
2022/09/05 14:17:16;;;;;;;2.90;1.97;;;28.70;95.50;;;;;;5037682;28;20507;-72
2022/09/05 14:22:41;;;;;;;1.93;1.80;;;28.70;95.30;;;;;;4996570;28;20575;-72
2022/09/05 14:25:15;;;;;;;2.00;1.90;;;28.60;94.90;;;;;;5032028;28;20416;-70
2022/09/05 14:27:45;;;;;;;1.80;1.70;;;28.60;95.40;;;;;;5045385;28;20427;-70
2022/09/05 14:30:32;;;;;;;2.03;1.73;;;28.50;95.10;;;;;;5051908;28;20501;-70
2022/09/05 14:33:29;;;;;;;6.40;2.50;;;28.50;94.20;;;;;;5045742;28;20449;-72
2022/09/05 14:36:29;;;;;;;2.50;1.70;;;28.50;95.30;;;;;;5049170;28;20490;-70
2022/09/05 14:39:26;;;;;;;2.37;2.17;;;28.50;94.50;;;;;;5050532;28;20491;-70
2022/09/05 14:42:18;;;;;;;1.90;1.80;;;28.50;94.90;;;;;;5010732;28;20630;-70
2022/09/05 14:45:02;;;;;;;1.87;1.77;;;28.50;94.90;;;;;;5051220;28;20426;-70
2022/09/05 14:47:51;;;;;;;1.67;1.57;;;28.50;95.90;;;;;;5049205;28;20871;-70
2022/09/05 14:50:55;;;;;;;3.73;2.00;;;28.50;94.50;;;;;;5043513;28;20473;-70
2022/09/05 14:53:29;;;;;;;4.07;1.83;;;28.40;95.80;;;;;;5049616;28;21257;-72
2022/09/05 14:56:02;;;;;;;2.00;1.90;;;28.40;95.20;;;;;;5050736;28;20412;-70
2022/09/05 14:58:30;;;;;;;2.13;1.93;;;28.40;96.30;;;;;;5050877;28;20780;-73
2022/09/05 15:00:59;;;;;;;2.17;2.00;;;28.40;95.70;;;;;;5052506;28;20428;-71
2022/09/05 15:03:39;;;;;;;3.10;1.90;;;28.40;95.60;;;;;;5049470;28;20412;-71
2022/09/05 15:06:22;;;;;;;2.73;1.70;;;28.30;95.00;;;;;;5041701;28;20829;-70
2022/09/05 15:08:56;;;;;;;3.43;2.13;;;28.30;95.90;;;;;;5047928;28;20417;-74
2022/09/05 15:11:25;;;;;;;2.13;1.93;;;28.30;95.40;;;;;;5049752;28;20434;-71
2022/09/05 15:13:55;;;;;;;1.93;1.80;;;28.20;94.90;;;;;;5052444;28;20411;-75
2022/09/05 15:16:23;;;;;;;1.80;1.70;;;28.20;94.40;;;;;;5045499;28;20423;-75
2022/09/05 15:18:51;;;;;;;1.70;1.60;;;28.20;94.60;;;;;;5052024;28;20466;-75
2022/09/05 15:21:33;;;;;;;1.67;1.57;;;28.30;94.00;;;;;;5050688;28;20479;-73
2022/09/05 15:24:19;;;;;;;2.20;1.87;;;28.20;95.70;;;;;;5051969;28;20511;-72
2022/09/05 15:26:52;;;;;;;2.00;1.80;;;28.10;94.60;;;;;;5051844;28;20419;-73
2022/09/05 15:29:27;;;;;;;1.70;1.60;;;28.10;94.00;;;;;;5051958;28;20423;-75
2022/09/05 15:32:15;;;;;;;2.40;2.30;;;28.00;94.50;;;;;;5051842;28;20474;-72
2022/09/05 15:34:40;;;;;;;2.00;1.90;;;28.00;94.50;;;;;;5051856;28;20923;-73
2022/09/05 15:37:27;;;;;;;1.60;1.50;;;27.90;94.20;;;;;;5050078;28;20420;-75
2022/09/05 15:40:00;;;;;;;1.90;1.80;;;27.90;95.40;;;;;;5032269;28;20589;-73
2022/09/05 15:42:30;;;;;;;2.60;1.60;;;27.90;96.00;;;;;;5030478;28;20980;-70